Time;durP1;ratioP1;P1;durP2;ratioP2;P2;SDS_P1;SDS_P2;PMS_P1;PMS_P2;Temp;Humidity;BMP_temperature;BMP_pressure;BME280_temperature;BME280_humidity;BME280_pressure;Samples;Min_cycle;Max_cycle;Signal;HPM_P1;HPM_P2
2021/10/06 00:00:38;;;;;;;11.50;9.80;;;;;;;14.70;64.79;99639.36;228502;1192;139795;-69
2021/10/06 00:05:46;;;;;;;17.90;9.10;;;;;;;14.65;64.82;99640.33;228608;1193;139151;-68
2021/10/06 00:10:51;;;;;;;13.60;8.50;;;;;;;14.60;64.92;99643.59;229723;1192;138586;-68
2021/10/06 00:15:55;;;;;;;11.30;7.60;;;;;;;14.52;65.10;99642.97;229179;1192;139633;-67
2021/10/06 00:21:01;;;;;;;13.40;7.60;;;;;;;14.47;65.13;99640.58;229287;1192;139074;-68
2021/10/06 00:26:07;;;;;;;14.20;9.90;;;;;;;14.47;65.26;99642.20;230872;1192;140044;-70
2021/10/06 00:31:11;;;;;;;11.40;8.10;;;;;;;14.48;65.30;99649.00;230774;1192;140411;-68
2021/10/06 00:36:15;;;;;;;12.20;8.30;;;;;;;14.49;65.25;99654.96;231307;1192;139206;-69
2021/10/06 00:41:18;;;;;;;9.30;8.30;;;;;;;14.47;65.38;99655.71;230534;1192;138986;-69
2021/10/06 00:46:22;;;;;;;19.50;8.70;;;;;;;14.45;65.45;99663.20;230541;1191;139633;-70
2021/10/06 00:51:26;;;;;;;11.10;7.40;;;;;;;14.43;65.34;99665.77;230319;1192;140619;-69
2021/10/06 00:56:30;;;;;;;19.70;9.00;;;;;;;14.41;65.34;99665.48;229514;1192;141046;-68
2021/10/06 01:01:34;;;;;;;10.20;8.30;;;;;;;14.38;65.56;99667.38;229058;1192;139389;-69
2021/10/06 01:06:39;;;;;;;10.70;7.40;;;;;;;14.34;65.69;99674.13;228966;1192;139270;-69
2021/10/06 01:11:44;;;;;;;11.10;8.70;;;;;;;14.26;65.83;99672.52;230052;1192;140130;-68
2021/10/06 01:16:49;;;;;;;18.00;7.80;;;;;;;14.21;65.89;99674.64;229453;1192;140418;-68
2021/10/06 01:21:56;;;;;;;14.80;9.90;;;;;;;14.16;65.87;99671.19;230543;1191;139663;-68
2021/10/06 01:27:00;;;;;;;9.80;8.60;;;;;;;14.13;65.90;99674.70;230279;1192;141389;-68
2021/10/06 01:32:17;;;;;;;9.30;8.00;;;;;;;14.05;66.07;99672.84;229782;1192;138712;-67
2021/10/06 01:37:22;;;;;;;12.50;7.90;;;;;;;13.97;66.32;99673.16;230286;1192;140144;-68
2021/10/06 01:42:25;;;;;;;9.90;8.30;;;;;;;13.89;66.57;99676.96;229471;1192;139698;-68
2021/10/06 01:47:31;;;;;;;11.00;7.20;;;;;;;13.80;66.48;99679.67;229580;1191;140144;-68
2021/10/06 01:52:35;;;;;;;15.90;8.80;;;;;;;13.76;66.50;99673.11;229557;1192;139731;-68
2021/10/06 01:57:39;;;;;;;14.60;9.30;;;;;;;13.76;66.84;99673.77;229837;1192;140670;-68
2021/10/06 02:02:47;;;;;;;12.20;8.60;;;;;;;13.73;67.10;99671.50;230652;1192;139464;-69
2021/10/06 02:07:52;;;;;;;10.30;8.40;;;;;;;13.71;67.20;99677.44;230552;1192;139685;-69
2021/10/06 02:12:58;;;;;;;10.80;8.20;;;;;;;13.68;67.21;99673.02;230195;1192;138931;-69
2021/10/06 02:18:04;;;;;;;14.00;7.10;;;;;;;13.67;67.20;99669.74;230782;1192;139177;-69
2021/10/06 02:23:08;;;;;;;13.50;8.80;;;;;;;13.68;67.23;99671.47;231356;1192;139666;-69
2021/10/06 02:28:13;;;;;;;22.80;7.30;;;;;;;13.67;67.30;99677.77;231239;1191;139888;-68
2021/10/06 02:33:17;;;;;;;7.50;6.50;;;;;;;13.63;67.56;99676.94;231259;1192;139234;-68
2021/10/06 02:38:21;;;;;;;12.80;7.90;;;;;;;13.65;67.54;99677.98;230185;1192;139936;-68
2021/10/06 02:43:26;;;;;;;10.30;7.20;;;;;;;13.70;67.57;99675.92;230788;1192;139411;-67
2021/10/06 02:48:30;;;;;;;13.00;9.00;;;;;;;13.69;67.63;99675.44;230599;1192;139571;-68
2021/10/06 02:53:34;;;;;;;11.00;7.90;;;;;;;13.68;67.67;99687.42;229986;1192;138745;-67
2021/10/06 02:58:39;;;;;;;9.00;7.50;;;;;;;13.65;67.90;99686.17;229416;1192;139593;-67
2021/10/06 03:03:43;;;;;;;23.20;7.30;;;;;;;13.64;67.87;99693.02;230496;1192;139007;-67
2021/10/06 03:08:47;;;;;;;12.50;7.90;;;;;;;13.68;68.04;99695.73;229506;1192;139779;-67
2021/10/06 03:13:51;;;;;;;10.60;6.80;;;;;;;13.67;68.10;99698.40;230204;1192;139080;-68
2021/10/06 03:18:56;;;;;;;8.90;7.10;;;;;;;13.64;68.06;99699.61;230458;1192;139154;-68
2021/10/06 03:24:01;;;;;;;11.50;8.60;;;;;;;13.59;68.26;99703.42;229813;1192;138700;-67
2021/10/06 03:29:05;;;;;;;19.20;7.90;;;;;;;13.57;68.54;99709.55;229695;1192;138928;-67
2021/10/06 03:34:10;;;;;;;9.40;7.90;;;;;;;13.59;68.33;99711.72;229673;1191;140409;-67
2021/10/06 03:39:15;;;;;;;14.10;7.20;;;;;;;13.58;68.28;99718.09;229880;1192;138935;-67
2021/10/06 03:44:20;;;;;;;8.50;7.60;;;;;;;13.54;68.40;99722.06;229763;1191;139804;-67
2021/10/06 03:49:25;;;;;;;9.60;8.00;;;;;;;13.52;68.48;99732.33;229956;1192;138709;-68
2021/10/06 03:54:29;;;;;;;11.60;7.10;;;;;;;13.49;68.45;99733.75;230143;1191;138669;-67
2021/10/06 03:59:34;;;;;;;9.10;7.20;;;;;;;13.51;68.50;99728.52;229474;1191;140107;-67
2021/10/06 04:04:39;;;;;;;13.10;7.50;;;;;;;13.51;68.51;99728.14;230417;1192;140185;-67
2021/10/06 04:09:43;;;;;;;10.10;8.20;;;;;;;13.49;68.49;99731.38;230849;1192;139169;-68
2021/10/06 04:14:47;;;;;;;11.90;8.70;;;;;;;13.47;68.57;99741.45;229357;1192;139087;-67
2021/10/06 04:19:51;;;;;;;12.10;7.80;;;;;;;13.45;68.73;99746.80;229561;1192;140489;-67
2021/10/06 04:24:55;;;;;;;11.80;7.40;;;;;;;13.46;68.80;99749.63;229821;1192;141069;-67
2021/10/06 04:30:00;;;;;;;7.10;6.40;;;;;;;13.47;68.70;99755.89;231112;1192;140083;-67
2021/10/06 04:35:05;;;;;;;9.70;7.30;;;;;;;13.50;68.77;99761.55;229980;1192;138799;-67
2021/10/06 04:40:11;;;;;;;13.50;9.10;;;;;;;13.47;68.90;99764.73;230858;1192;140276;-67
2021/10/06 04:45:17;;;;;;;10.50;8.60;;;;;;;13.52;68.87;99766.50;229674;1192;139123;-67
2021/10/06 04:50:24;;;;;;;12.70;7.70;;;;;;;13.61;68.98;99764.56;230771;1192;139275;-68
2021/10/06 04:55:28;;;;;;;8.50;7.10;;;;;;;13.63;68.89;99767.69;230366;1192;139050;-68
2021/10/06 05:00:34;;;;;;;8.60;7.30;;;;;;;13.66;68.97;99777.26;229821;1192;138306;-68
2021/10/06 05:05:40;;;;;;;13.40;7.10;;;;;;;13.69;68.94;99774.61;230010;1192;139116;-68
2021/10/06 05:11:05;;;;;;;10.60;7.70;;;;;;;13.73;68.73;99771.44;230206;1192;139643;-67
2021/10/06 05:16:10;;;;;;;15.70;7.50;;;;;;;13.77;68.76;99778.20;229782;1192;139936;-68
2021/10/06 05:21:24;;;;;;;8.20;7.40;;;;;;;13.81;68.74;99777.96;229100;1193;139190;-67
2021/10/06 05:26:29;;;;;;;8.10;6.50;;;;;;;13.84;68.84;99786.98;229102;1192;140434;-68
2021/10/06 05:31:33;;;;;;;12.70;8.40;;;;;;;13.84;68.74;99795.52;229258;1192;139542;-67
2021/10/06 05:36:38;;;;;;;9.70;8.10;;;;;;;13.84;68.77;99805.91;229380;1192;139887;-68
2021/10/06 05:41:43;;;;;;;7.90;6.50;;;;;;;13.85;69.15;99818.20;229971;1192;139477;-68
2021/10/06 05:46:48;;;;;;;14.00;8.20;;;;;;;13.85;69.15;99822.70;229436;1192;139115;-68
2021/10/06 05:51:52;;;;;;;9.80;7.30;;;;;;;13.87;69.52;99827.54;229659;1192;139966;-69
2021/10/06 05:56:57;;;;;;;12.90;8.70;;;;;;;13.93;69.47;99831.78;229680;1192;139388;-67
2021/10/06 06:02:02;;;;;;;11.90;8.00;;;;;;;13.96;69.47;99839.48;229781;1192;140406;-68
2021/10/06 06:07:06;;;;;;;11.50;7.50;;;;;;;14.00;69.74;99848.46;229805;1192;140335;-66
2021/10/06 06:12:12;;;;;;;11.20;8.00;;;;;;;14.03;69.77;99852.89;230017;1192;140822;-68
2021/10/06 06:17:17;;;;;;;15.10;9.80;;;;;;;14.09;69.90;99850.67;229442;1192;142118;-67
2021/10/06 06:22:21;;;;;;;15.30;8.40;;;;;;;14.13;69.88;99864.06;231512;1191;139879;-69
2021/10/06 06:27:26;;;;;;;10.30;7.60;;;;;;;14.13;70.18;99872.44;231332;1191;139947;-68
2021/10/06 06:32:31;;;;;;;17.60;8.90;;;;;;;14.14;70.41;99871.15;230183;1192;140515;-68
2021/10/06 06:37:36;;;;;;;14.20;9.80;;;;;;;14.24;70.30;99876.50;230536;1192;139982;-66
2021/10/06 06:42:40;;;;;;;17.00;9.30;;;;;;;14.37;70.71;99872.10;231208;1192;139385;-65
2021/10/06 06:47:44;;;;;;;15.30;9.50;;;;;;;14.49;70.79;99860.20;230312;1192;140589;-68
2021/10/06 06:52:48;;;;;;;10.40;7.70;;;;;;;14.61;70.83;99859.55;230667;1192;139293;-65
2021/10/06 06:57:54;;;;;;;15.80;9.80;;;;;;;14.76;70.78;99857.27;229915;1192;139810;-66
2021/10/06 07:02:59;;;;;;;15.50;8.80;;;;;;;14.88;71.00;99855.86;229065;1192;139775;-65
2021/10/06 07:08:06;;;;;;;11.80;9.40;;;;;;;14.96;71.01;99859.83;229905;1192;142322;-65
2021/10/06 07:13:10;;;;;;;20.10;8.90;;;;;;;14.97;70.97;99873.77;228537;1192;139647;-65
2021/10/06 07:18:16;;;;;;;14.90;10.20;;;;;;;14.87;71.11;99891.54;229425;1193;140749;-66
2021/10/06 07:23:25;;;;;;;13.20;9.40;;;;;;;14.79;71.41;99904.48;229236;1192;139370;-65
2021/10/06 07:28:30;;;;;;;16.80;11.50;;;;;;;14.72;71.45;99913.32;229229;1192;231843;-67
2021/10/06 07:33:34;;;;;;;12.30;8.70;;;;;;;14.70;71.73;99918.14;229861;1192;140306;-66
2021/10/06 07:38:39;;;;;;;17.80;10.00;;;;;;;14.83;72.03;99921.20;229590;1192;139605;-66
2021/10/06 07:43:43;;;;;;;15.60;12.20;;;;;;;15.02;72.30;99917.28;228901;1192;141184;-67
2021/10/06 07:48:49;;;;;;;10.50;9.00;;;;;;;15.13;72.25;99930.95;229706;1192;139632;-66
2021/10/06 07:53:53;;;;;;;18.90;12.70;;;;;;;15.15;72.15;99940.20;229950;1192;139495;-66
2021/10/06 07:58:57;;;;;;;12.00;10.50;;;;;;;15.19;72.16;99945.00;229114;1192;139321;-66
2021/10/06 08:04:02;;;;;;;12.80;11.00;;;;;;;15.27;72.39;99948.54;229902;1192;140235;-65
2021/10/06 08:09:07;;;;;;;13.40;9.80;;;;;;;15.37;72.57;99948.52;229517;1192;138959;-66
2021/10/06 08:14:12;;;;;;;19.90;8.80;;;;;;;15.48;72.36;99950.20;230208;1192;138765;-67
2021/10/06 08:19:16;;;;;;;13.70;10.80;;;;;;;15.72;72.47;99952.31;231067;1192;140049;-67
2021/10/06 08:24:21;;;;;;;9.00;7.50;;;;;;;15.99;72.50;99957.24;230961;1192;139838;-66
2021/10/06 08:29:26;;;;;;;11.00;9.60;;;;;;;16.14;72.23;99955.89;230340;1192;138612;-66
2021/10/06 08:34:30;;;;;;;10.50;9.30;;;;;;;16.16;71.77;99960.90;231133;1192;139412;-67
2021/10/06 08:39:35;;;;;;;8.90;7.90;;;;;;;16.15;71.90;99970.10;230606;1192;140119;-67
2021/10/06 08:44:41;;;;;;;21.10;9.50;;;;;;;16.22;71.96;99979.52;230067;1192;139407;-66
2021/10/06 08:49:45;;;;;;;13.40;8.80;;;;;;;16.26;71.45;99990.21;230628;1192;139267;-67
2021/10/06 08:54:52;;;;;;;11.30;8.70;;;;;;;16.25;71.50;99987.04;230462;1192;140296;-66
2021/10/06 08:59:56;;;;;;;9.70;8.60;;;;;;;16.19;71.39;99990.80;231065;1192;139517;-66
2021/10/06 09:05:01;;;;;;;11.70;9.30;;;;;;;16.08;71.31;99989.00;230448;1192;138130;-66
2021/10/06 09:10:14;;;;;;;11.90;9.20;;;;;;;15.97;71.43;99987.56;229433;1192;141313;-66
2021/10/06 09:15:18;;;;;;;20.70;10.30;;;;;;;15.90;71.61;100001.73;228846;1192;140199;-65
2021/10/06 09:20:33;;;;;;;18.10;12.10;;;;;;;15.76;71.75;100012.11;229705;1192;140854;-65
2021/10/06 09:26:12;;;;;;;20.80;13.40;;;;;;;15.68;71.98;100017.81;229906;1192;140260;-65
2021/10/06 09:31:26;;;;;;;17.50;12.20;;;;;;;15.64;72.13;100025.05;230504;1192;140486;-66
2021/10/06 09:36:35;;;;;;;15.10;11.20;;;;;;;15.61;72.25;100038.69;229969;1191;140352;-65
2021/10/06 09:41:45;;;;;;;16.50;14.80;;;;;;;15.56;72.40;100049.20;229925;1192;149707;-65
2021/10/06 09:47:03;;;;;;;20.50;16.80;;;;;;;15.52;72.42;100059.58;229738;1192;232276;-65
2021/10/06 09:52:33;;;;;;;22.20;19.30;;;;;;;15.51;72.54;100069.35;228944;1193;140682;-65
2021/10/06 09:57:41;;;;;;;26.70;18.30;;;;;;;15.38;72.43;100075.80;229796;1192;139685;-65
2021/10/06 10:02:46;;;;;;;24.40;13.70;;;;;;;15.28;72.62;100078.42;229664;1192;139619;-65
2021/10/06 10:07:53;;;;;;;19.00;13.00;;;;;;;15.18;72.73;100073.09;229898;1192;140985;-68
2021/10/06 10:13:00;;;;;;;19.10;14.40;;;;;;;15.07;72.91;100076.58;229996;1192;161222;-67
2021/10/06 10:18:09;;;;;;;17.20;13.60;;;;;;;15.14;73.33;100080.02;229839;1192;140440;-67
2021/10/06 10:23:17;;;;;;;16.10;12.70;;;;;;;15.22;73.62;100083.75;229386;1191;140277;-67
2021/10/06 10:28:28;;;;;;;23.20;16.40;;;;;;;15.28;73.85;100089.86;230419;1192;140453;-67
2021/10/06 10:33:42;;;;;;;19.80;13.50;;;;;;;15.27;73.75;100096.90;229280;1192;140046;-67
2021/10/06 10:38:51;;;;;;;11.50;10.30;;;;;;;15.36;74.11;100105.05;229453;1191;141911;-67
2021/10/06 10:44:01;;;;;;;25.70;15.90;;;;;;;15.40;73.94;100105.91;230127;1192;140210;-65
2021/10/06 10:49:08;;;;;;;13.50;11.50;;;;;;;15.39;73.90;100102.61;231207;1192;138798;-66
2021/10/06 10:54:31;;;;;;;15.20;12.50;;;;;;;15.31;73.72;100106.38;230863;1192;139877;-66
2021/10/06 10:59:50;;;;;;;22.80;11.80;;;;;;;15.25;73.78;100103.33;230402;1192;139659;-65
2021/10/06 11:04:59;;;;;;;17.40;11.50;;;;;;;15.22;73.80;100108.63;231107;1192;140197;-65
2021/10/06 11:10:19;;;;;;;14.50;12.40;;;;;;;15.28;73.97;100108.18;230744;1192;140052;-64
2021/10/06 11:15:25;;;;;;;21.50;12.20;;;;;;;15.25;73.90;100110.64;230425;1192;138965;-64
2021/10/06 11:20:48;;;;;;;18.20;11.90;;;;;;;15.25;74.09;100114.88;229899;1192;139000;-67
2021/10/06 11:25:52;;;;;;;14.20;12.70;;;;;;;15.24;74.19;100121.80;229941;1192;139882;-67
2021/10/06 11:30:59;;;;;;;22.30;12.50;;;;;;;15.20;74.18;100122.14;230121;1192;139862;-66
2021/10/06 11:36:27;;;;;;;14.40;13.00;;;;;;;15.18;74.37;100127.55;230315;1192;141155;-66
2021/10/06 11:41:33;;;;;;;15.80;12.20;;;;;;;15.17;74.35;100129.09;229370;1192;140290;-65
2021/10/06 11:46:45;;;;;;;13.50;12.00;;;;;;;15.16;74.58;100130.59;230348;1191;140232;-66
2021/10/06 11:51:53;;;;;;;13.60;12.00;;;;;;;15.16;74.65;100130.05;229488;1192;140664;-66
2021/10/06 11:57:01;;;;;;;20.10;12.70;;;;;;;15.12;74.62;100130.23;230246;1184;139497;-66
2021/10/06 12:02:10;;;;;;;15.90;11.40;;;;;;;15.12;74.83;100130.33;230120;1192;138993;-67
2021/10/06 12:07:21;;;;;;;16.80;12.40;;;;;;;15.16;74.98;100134.84;230185;1191;140136;-65
2021/10/06 12:12:39;;;;;;;13.30;11.90;;;;;;;15.24;74.93;100131.68;229496;1192;139771;-65
2021/10/06 12:17:49;;;;;;;14.50;12.20;;;;;;;15.33;75.07;100124.95;229755;1191;140329;-66
2021/10/06 12:22:58;;;;;;;15.70;12.80;;;;;;;15.43;75.31;100129.83;230040;1193;140696;-66
2021/10/06 12:28:14;;;;;;;13.70;12.10;;;;;;;15.56;75.24;100131.05;229475;1192;140694;-66
2021/10/06 12:33:26;;;;;;;14.30;11.70;;;;;;;15.67;75.18;100131.70;230242;1192;140292;-66
2021/10/06 12:38:39;;;;;;;16.20;13.30;;;;;;;15.72;74.97;100135.02;229727;1191;141451;-65
2021/10/06 12:43:45;;;;;;;14.60;11.80;;;;;;;15.73;75.07;100132.77;231182;1192;140959;-65
2021/10/06 12:48:58;;;;;;;12.00;9.80;;;;;;;15.74;74.90;100136.48;230987;1192;139852;-66
2021/10/06 12:54:17;;;;;;;19.50;11.30;;;;;;;15.67;75.03;100143.00;231172;1192;140038;-66
2021/10/06 12:59:40;;;;;;;17.10;13.40;;;;;;;15.62;74.98;100147.95;230507;1192;141140;-65
2021/10/06 13:04:56;;;;;;;;;;;;;;;;;;;;;
2021/10/06 13:10:06;;;;;;;18.40;14.80;;;;;;;15.53;75.20;100151.20;230726;1192;140825;-65
2021/10/06 13:15:11;;;;;;;14.70;12.70;;;;;;;15.53;75.12;100155.72;229831;1192;141793;-66
2021/10/06 13:20:17;;;;;;;22.10;14.20;;;;;;;15.48;75.30;100153.85;230049;1192;142036;-65
2021/10/06 13:25:23;;;;;;;20.20;15.40;;;;;;;15.51;75.41;100156.02;230596;1192;140231;-66
2021/10/06 13:30:34;;;;;;;17.20;14.60;;;;;;;15.46;75.44;100161.02;230907;1192;139771;-65
2021/10/06 13:35:39;;;;;;;20.80;14.20;;;;;;;15.39;75.58;100166.38;229682;1192;139943;-64
2021/10/06 13:40:47;;;;;;;17.60;13.80;;;;;;;15.31;75.48;100168.20;229306;1192;140966;-64
2021/10/06 13:45:54;;;;;;;18.50;14.90;;;;;;;15.14;75.43;100167.19;229875;1192;140664;-64
2021/10/06 13:50:58;;;;;;;;;;;;;;;15.05;75.68;100172.46;229990;1192;140518;-65
2021/10/06 13:56:04;;;;;;;17.20;14.10;;;;;;;14.94;75.80;100181.75;229903;1193;126218;-65
2021/10/06 14:01:09;;;;;;;15.90;13.90;;;;;;;14.87;75.88;100179.36;229773;1192;140192;-66
2021/10/06 14:06:14;;;;;;;17.70;15.10;;;;;;;14.77;76.10;100181.73;229101;1192;139733;-66
2021/10/06 14:11:19;;;;;;;18.30;16.50;;;;;;;14.70;76.21;100186.41;229320;1192;138843;-65
2021/10/06 14:16:25;;;;;;;15.70;14.00;;;;;;;14.62;76.40;100188.23;229575;1192;140389;-65
2021/10/06 14:21:39;;;;;;;20.10;15.80;;;;;;;14.62;76.42;100200.40;229834;1192;139688;-66
2021/10/06 14:26:45;;;;;;;19.90;17.20;;;;;;;14.59;76.66;100203.58;229976;1192;141991;-65
2021/10/06 14:31:49;;;;;;;21.00;17.50;;;;;;;14.58;76.75;100215.37;230473;1192;140113;-65
2021/10/06 14:36:53;;;;;;;24.40;17.90;;;;;;;14.53;76.57;100222.38;230076;1192;141031;-65
2021/10/06 14:41:59;;;;;;;21.00;14.80;;;;;;;14.43;76.71;100228.71;230745;1192;140211;-66
2021/10/06 14:47:04;;;;;;;20.80;18.20;;;;;;;14.38;76.74;100233.83;230552;1192;208583;-66
2021/10/06 14:52:08;;;;;;;23.10;18.60;;;;;;;14.33;76.66;100230.35;229873;1192;140225;-65
2021/10/06 14:57:12;;;;;;;22.40;17.20;;;;;;;14.28;76.75;100237.20;230982;1192;139786;-65
2021/10/06 15:02:17;;;;;;;25.80;16.60;;;;;;;14.21;76.61;100245.08;230872;1192;141041;-65
2021/10/06 15:07:23;;;;;;;21.80;15.30;;;;;;;14.16;76.52;100246.94;231114;1192;140718;-66
2021/10/06 15:12:28;;;;;;;25.10;14.80;;;;;;;14.11;76.72;100250.77;231218;1192;139847;-66
2021/10/06 15:17:33;;;;;;;22.10;14.40;;;;;;;14.04;76.67;100258.34;229849;1192;139780;-65
2021/10/06 15:22:39;;;;;;;24.00;18.10;;;;;;;13.91;76.80;100262.48;229319;1192;139597;-65
2021/10/06 15:27:44;;;;;;;88.10;54.60;;;;;;;13.83;76.99;100259.55;230060;1192;140578;-66
2021/10/06 15:32:49;;;;;;;25.30;17.70;;;;;;;13.76;76.94;100264.38;230170;1192;141571;-66
2021/10/06 15:37:53;;;;;;;81.40;37.50;;;;;;;13.72;77.17;100264.96;229133;1191;139947;-65
2021/10/06 15:43:14;;;;;;;38.00;24.30;;;;;;;13.67;77.36;100262.35;230184;1192;140729;-67
2021/10/06 15:48:22;;;;;;;45.00;16.50;;;;;;;13.64;77.32;100267.34;229306;1192;141072;-66
2021/10/06 15:53:30;;;;;;;33.50;18.90;;;;;;;13.58;77.24;100266.05;229505;1192;140169;-67
2021/10/06 15:58:43;;;;;;;34.30;22.50;;;;;;;13.55;77.58;100272.26;230400;1191;139244;-68
2021/10/06 16:03:48;;;;;;;31.40;20.40;;;;;;;13.52;77.52;100273.02;230451;1192;140452;-68
2021/10/06 16:09:08;;;;;;;24.40;16.60;;;;;;;13.53;77.46;100277.20;229475;1192;141168;-66
2021/10/06 16:14:15;;;;;;;21.60;16.00;;;;;;;13.52;77.88;100280.98;228826;1193;140906;-66
2021/10/06 16:19:22;;;;;;;20.30;14.60;;;;;;;13.52;77.94;100291.76;228890;1192;139925;-67
2021/10/06 16:24:34;;;;;;;;;;;;;;;13.52;77.96;100296.30;230123;1192;140350;-66
2021/10/06 16:29:42;;;;;;;18.00;14.60;;;;;;;13.51;78.14;100302.83;230417;1192;126918;-66
2021/10/06 16:34:48;;;;;;;17.70;13.50;;;;;;;13.51;78.05;100307.65;229360;1192;140594;-66
2021/10/06 16:39:59;;;;;;;13.20;11.80;;;;;;;13.50;78.09;100313.95;230386;1192;150538;-66
2021/10/06 16:45:05;;;;;;;17.10;15.10;;;;;;;13.43;78.19;100320.52;230890;1192;139436;-67
2021/10/06 16:50:12;;;;;;;22.40;15.40;;;;;;;13.40;78.33;100318.80;230524;1192;141040;-67
2021/10/06 16:55:27;;;;;;;14.10;12.60;;;;;;;13.38;78.19;100320.27;230383;1192;140392;-67
2021/10/06 17:00:31;;;;;;;19.60;14.30;;;;;;;13.35;78.16;100323.58;229626;1184;140086;-66
2021/10/06 17:05:44;;;;;;;16.10;13.20;;;;;;;13.32;78.27;100330.86;231157;1192;140446;-67
2021/10/06 17:10:49;;;;;;;15.80;13.70;;;;;;;13.30;78.18;100328.14;230702;1192;140297;-66
2021/10/06 17:15:56;;;;;;;16.30;13.60;;;;;;;13.26;78.47;100333.63;231168;1192;140232;-66
2021/10/06 17:21:02;;;;;;;18.10;14.70;;;;;;;13.20;78.46;100330.60;231171;1192;140257;-66
2021/10/06 17:26:07;;;;;;;19.70;17.20;;;;;;;13.19;78.63;100335.08;229821;1192;139639;-66
2021/10/06 17:31:15;;;;;;;19.00;16.90;;;;;;;13.17;78.57;100333.75;229034;1192;140302;-66
2021/10/06 17:36:27;;;;;;;23.10;16.90;;;;;;;13.13;78.55;100343.09;229871;1192;141222;-66
2021/10/06 17:41:42;;;;;;;20.30;16.70;;;;;;;13.09;78.84;100345.42;229742;1192;141957;-66
2021/10/06 17:46:48;;;;;;;27.90;16.50;;;;;;;13.07;79.02;100353.45;230435;1192;140730;-66
2021/10/06 17:51:57;;;;;;;22.90;17.50;;;;;;;13.05;78.71;100353.05;229472;1192;140479;-66
2021/10/06 17:57:02;;;;;;;20.40;15.80;;;;;;;13.06;79.02;100356.48;230667;1192;140362;-67
2021/10/06 18:02:12;;;;;;;20.80;17.40;;;;;;;13.07;79.34;100361.16;228240;1192;140927;-67
2021/10/06 18:07:26;;;;;;;20.90;15.60;;;;;;;13.11;79.36;100359.98;228364;1192;141427;-66
2021/10/06 18:12:32;;;;;;;16.20;14.60;;;;;;;13.10;79.21;100364.73;228278;1192;140249;-66
2021/10/06 18:17:37;;;;;;;21.40;15.40;;;;;;;13.03;79.19;100370.98;228765;1192;140857;-66
2021/10/06 18:22:44;;;;;;;23.80;16.20;;;;;;;12.99;79.11;100373.36;228723;1192;140389;-67
2021/10/06 18:27:48;;;;;;;31.20;20.20;;;;;;;12.96;79.31;100379.33;229045;1192;140400;-66
2021/10/06 18:32:52;;;;;;;23.90;17.10;;;;;;;12.94;79.41;100383.45;230646;1192;141039;-66
2021/10/06 18:37:59;;;;;;;19.60;14.90;;;;;;;12.95;79.42;100385.95;229759;1192;141030;-67
2021/10/06 18:43:05;;;;;;;26.50;16.10;;;;;;;12.96;79.44;100390.88;228842;1192;140433;-67
2021/10/06 18:48:29;;;;;;;17.60;14.50;;;;;;;12.94;79.45;100394.05;230239;1192;140699;-67
2021/10/06 18:53:36;;;;;;;17.50;15.60;;;;;;;12.90;79.45;100391.77;229598;1192;139619;-67
2021/10/06 18:58:41;;;;;;;25.10;16.30;;;;;;;12.86;79.53;100397.62;230712;1192;141126;-67
2021/10/06 19:03:46;;;;;;;20.70;15.20;;;;;;;12.82;79.52;100395.73;231188;1191;140586;-67
2021/10/06 19:08:50;;;;;;;21.30;15.20;;;;;;;12.80;79.67;100400.89;231236;1191;139718;-67
2021/10/06 19:13:56;;;;;;;23.80;15.70;;;;;;;12.85;79.70;100406.59;230950;1192;140666;-66
2021/10/06 19:19:00;;;;;;;23.00;16.90;;;;;;;12.93;79.76;100411.80;231322;1192;141760;-66
2021/10/06 19:24:05;;;;;;;23.80;17.80;;;;;;;13.03;79.95;100412.67;229590;1192;142115;-66
2021/10/06 19:29:14;;;;;;;23.00;17.70;;;;;;;13.06;79.88;100418.48;230099;1192;139713;-66
2021/10/06 19:34:28;;;;;;;25.10;17.20;;;;;;;13.05;79.87;100423.54;230153;1192;142508;-66
2021/10/06 19:39:34;;;;;;;23.40;19.30;;;;;;;12.99;79.86;100424.52;229230;1192;140296;-67
2021/10/06 19:44:39;;;;;;;24.30;19.90;;;;;;;12.98;80.08;100428.35;229968;1192;141787;-66
2021/10/06 19:49:45;;;;;;;23.10;18.80;;;;;;;12.96;79.99;100434.67;229455;1177;141040;-66
2021/10/06 19:54:52;;;;;;;22.10;18.00;;;;;;;12.95;79.75;100436.89;229378;1192;140299;-67
2021/10/06 19:59:57;;;;;;;22.30;17.00;;;;;;;12.92;79.87;100445.66;229224;1192;140007;-66
2021/10/06 20:05:02;;;;;;;28.80;18.70;;;;;;;12.94;80.12;100448.27;229596;1186;139845;-66
2021/10/06 20:10:09;;;;;;;27.40;21.50;;;;;;;13.01;80.12;100445.06;228626;1192;140484;-65
2021/10/06 20:15:19;;;;;;;33.60;22.40;;;;;;;13.03;80.23;100444.05;228739;1192;140486;-66
2021/10/06 20:20:23;;;;;;;27.10;21.40;;;;;;;13.02;80.10;100440.80;229146;1192;139894;-65
2021/10/06 20:25:28;;;;;;;30.00;20.30;;;;;;;13.01;80.28;100436.34;229993;1192;140528;-65
2021/10/06 20:30:33;;;;;;;26.90;19.70;;;;;;;13.02;80.01;100438.57;229735;1192;140650;-65
2021/10/06 20:35:43;;;;;;;36.80;22.60;;;;;;;13.00;80.02;100438.68;230335;1192;140682;-65
2021/10/06 20:40:49;;;;;;;28.30;19.90;;;;;;;13.02;80.12;100434.59;230385;1191;140012;-68
2021/10/06 20:45:53;;;;;;;25.60;20.60;;;;;;;12.95;79.85;100443.80;230162;1192;140251;-66
2021/10/06 20:50:57;;;;;;;26.90;18.60;;;;;;;12.91;79.87;100446.12;230684;1192;140522;-67
2021/10/06 20:56:02;;;;;;;26.10;19.00;;;;;;;12.92;79.83;100451.97;230509;1192;140725;-65
2021/10/06 21:01:09;;;;;;;24.60;17.40;;;;;;;12.88;79.60;100456.59;230732;1192;140481;-64
2021/10/06 21:06:13;;;;;;;24.90;18.50;;;;;;;12.92;79.96;100448.13;230916;1192;140155;-66
2021/10/06 21:11:18;;;;;;;24.30;17.50;;;;;;;13.03;80.19;100451.65;231041;1192;140591;-66
2021/10/06 21:16:21;;;;;;;19.40;17.20;;;;;;;13.09;80.01;100459.13;231022;1192;140289;-65
2021/10/06 21:21:27;;;;;;;23.60;17.80;;;;;;;13.11;79.80;100465.43;229006;1192;140715;-65
2021/10/06 21:26:31;;;;;;;23.30;18.60;;;;;;;13.13;79.71;100466.34;230206;1192;141222;-64
2021/10/06 21:31:39;;;;;;;22.20;17.50;;;;;;;13.16;79.69;100459.50;230474;1192;140258;-65
2021/10/06 21:36:45;;;;;;;20.00;15.90;;;;;;;13.17;79.72;100456.58;230146;1192;139244;-66
2021/10/06 21:41:50;;;;;;;21.50;14.70;;;;;;;13.13;79.40;100456.22;229957;1192;140198;-67
2021/10/06 21:46:54;;;;;;;22.10;15.60;;;;;;;13.06;79.03;100453.05;230023;1192;155430;-63
2021/10/06 21:51:59;;;;;;;25.90;17.70;;;;;;;13.00;79.07;100452.86;228435;1192;139341;-65
2021/10/06 21:57:04;;;;;;;20.70;14.90;;;;;;;12.93;79.14;100455.32;229820;1192;140698;-65
2021/10/06 22:02:09;;;;;;;16.90;13.60;;;;;;;12.89;79.19;100446.74;230412;1192;140945;-65
2021/10/06 22:07:14;;;;;;;20.50;14.30;;;;;;;12.86;79.06;100448.14;230448;1192;141119;-64
2021/10/06 22:12:19;;;;;;;24.40;16.30;;;;;;;12.87;78.98;100450.61;229328;1192;140948;-64
2021/10/06 22:17:23;;;;;;;20.30;13.50;;;;;;;12.84;78.92;100455.21;230083;1192;141479;-65
2021/10/06 22:22:28;;;;;;;18.70;13.70;;;;;;;12.79;78.87;100461.00;229874;1192;140690;-67
2021/10/06 22:27:34;;;;;;;18.60;13.10;;;;;;;12.71;78.85;100464.87;228531;1192;140589;-65
2021/10/06 22:32:40;;;;;;;25.80;14.00;;;;;;;12.64;78.70;100465.98;229519;1192;140657;-65
2021/10/06 22:37:43;;;;;;;20.20;15.70;;;;;;;12.59;78.94;100472.14;229780;1192;150741;-64
2021/10/06 22:42:49;;;;;;;19.50;13.70;;;;;;;12.53;78.82;100477.95;230604;1192;140720;-65
2021/10/06 22:47:52;;;;;;;22.70;13.70;;;;;;;12.51;78.90;100472.23;230051;1192;141243;-66
2021/10/06 22:52:56;;;;;;;18.60;15.50;;;;;;;12.56;79.02;100473.52;230142;1192;139946;-66
2021/10/06 22:57:59;;;;;;;22.50;16.00;;;;;;;12.58;79.05;100479.77;229594;1190;140494;-64